Time;durP1;ratioP1;P1;durP2;ratioP2;P2;SDS_P1;SDS_P2;PMS_P1;PMS_P2;Temp;Humidity;BMP_temperature;BMP_pressure;BME280_temperature;BME280_humidity;BME280_pressure;Samples;Min_cycle;Max_cycle;Signal;HPM_P1;HPM_P2
2022/07/26 00:01:51;;;;;;;;;;;17.70;99.90;;;;;;5115687;27;20363;-75
2022/07/26 00:04:17;;;;;;;1.95;0.70;;;17.60;99.90;;;;;;5113595;27;19962;-75
2022/07/26 00:06:42;;;;;;;2.45;0.80;;;17.60;99.90;;;;;;5095215;27;20546;-75
2022/07/26 00:09:08;;;;;;;1.98;0.75;;;17.70;99.90;;;;;;5113382;28;20126;-76
2022/07/26 00:11:34;;;;;;;2.50;0.90;;;17.70;99.90;;;;;;5115805;27;20133;-75
2022/07/26 00:14:05;;;;;;;2.28;0.88;;;17.70;99.90;;;;;;5109312;27;20058;-75
2022/07/26 00:16:31;;;;;;;2.13;0.70;;;17.70;99.90;;;;;;5099211;28;20040;-75
2022/07/26 00:18:56;;;;;;;;;;;17.60;99.90;;;;;;5109478;27;20038;-75
2022/07/26 00:21:23;;;;;;;2.78;1.00;;;17.70;99.90;;;;;;5146289;27;19975;-75
2022/07/26 00:23:49;;;;;;;3.60;1.17;;;17.70;99.90;;;;;;5114754;27;20027;-75
2022/07/26 00:26:15;;;;;;;;;;;17.60;99.90;;;;;;5080435;28;20118;-75
2022/07/26 00:28:40;;;;;;;1.92;0.60;;;17.60;99.90;;;;;;5097311;28;19923;-75
2022/07/26 00:31:06;;;;;;;2.17;0.77;;;17.70;99.90;;;;;;5093216;27;20082;-75
2022/07/26 00:33:32;;;;;;;1.30;0.50;;;17.70;99.90;;;;;;5097379;28;20042;-75
2022/07/26 00:35:58;;;;;;;1.90;0.80;;;17.70;99.90;;;;;;5095392;27;20048;-75
2022/07/26 00:38:23;;;;;;;1.52;0.68;;;17.70;99.90;;;;;;5089476;27;20498;-75
2022/07/26 00:40:49;;;;;;;;;;;17.70;99.90;;;;;;5106108;28;20043;-75
2022/07/26 00:43:15;;;;;;;1.67;0.55;;;17.60;99.90;;;;;;5117694;27;20024;-75
2022/07/26 00:45:40;;;;;;;1.15;0.60;;;17.60;99.90;;;;;;5109149;27;20050;-75
2022/07/26 00:48:06;;;;;;;1.45;0.50;;;17.50;99.90;;;;;;5095517;27;20050;-75
2022/07/26 00:50:32;;;;;;;1.17;0.60;;;17.70;99.90;;;;;;5095974;28;20035;-75
2022/07/26 00:52:58;;;;;;;0.60;0.30;;;17.50;99.90;;;;;;5105154;27;20127;-75
2022/07/26 00:55:23;;;;;;;1.20;0.50;;;17.60;99.90;;;;;;5082990;28;20052;-75
2022/07/26 00:57:49;;;;;;;;;;;17.70;99.90;;;;;;5095878;28;20178;-75
2022/07/26 01:00:20;;;;;;;1.83;0.68;;;17.60;99.90;;;;;;5095756;28;20389;-75
2022/07/26 01:02:45;;;;;;;1.48;0.70;;;17.60;99.90;;;;;;5078961;28;20049;-75
2022/07/26 01:05:11;;;;;;;;;;;17.60;99.90;;;;;;5078973;28;20043;-75
2022/07/26 01:07:37;;;;;;;2.38;0.77;;;17.60;99.90;;;;;;5094918;28;19922;-75
2022/07/26 01:10:07;;;;;;;2.03;0.65;;;17.60;99.90;;;;;;5128785;27;20047;-75
2022/07/26 01:12:33;;;;;;;1.67;0.80;;;17.60;99.90;;;;;;5134003;27;20049;-75
2022/07/26 01:14:59;;;;;;;;;;;17.70;99.90;;;;;;5127030;27;20044;-75
2022/07/26 01:17:24;;;;;;;1.77;0.75;;;17.60;99.90;;;;;;5098205;28;19916;-75
2022/07/26 01:19:50;;;;;;;2.38;0.73;;;17.70;99.90;;;;;;5094666;28;20043;-75
2022/07/26 01:22:16;;;;;;;;;;;17.70;99.90;;;;;;5130408;27;20051;-75
2022/07/26 01:24:41;;;;;;;1.25;0.50;;;17.70;99.90;;;;;;5095570;28;20438;-75
2022/07/26 01:27:07;;;;;;;;;;;17.60;99.90;;;;;;5099441;27;20494;-75
2022/07/26 01:29:33;;;;;;;1.80;0.60;;;17.60;99.90;;;;;;5132595;27;19916;-75
2022/07/26 01:31:58;;;;;;;;;;;17.60;99.90;;;;;;5084823;27;20054;-75
2022/07/26 01:34:24;;;;;;;1.35;0.60;;;17.60;99.90;;;;;;5149961;27;19923;-75
2022/07/26 01:36:49;;;;;;;;;;;17.60;99.90;;;;;;5112846;27;20070;-75
2022/07/26 01:39:15;;;;;;;1.52;0.65;;;17.60;99.90;;;;;;5148962;27;19919;-75
2022/07/26 01:41:41;;;;;;;1.70;0.50;;;17.60;99.90;;;;;;5095930;27;21081;-75
2022/07/26 01:44:06;;;;;;;2.63;0.68;;;17.50;99.90;;;;;;5097479;28;20039;-75
2022/07/26 01:46:33;;;;;;;1.05;0.63;;;17.60;99.90;;;;;;5093875;27;20043;-75
2022/07/26 01:49:00;;;;;;;2.22;0.77;;;17.50;99.90;;;;;;5096684;28;20040;-75
2022/07/26 01:51:26;;;;;;;1.90;0.73;;;17.50;99.90;;;;;;5084686;28;20046;-76
2022/07/26 01:53:52;;;;;;;1.75;0.60;;;17.60;99.90;;;;;;5094233;28;20032;-76
2022/07/26 01:56:17;;;;;;;;;;;17.60;99.90;;;;;;5095369;28;20039;-75
2022/07/26 01:58:44;;;;;;;1.05;0.63;;;17.50;99.90;;;;;;5119121;27;19922;-75
2022/07/26 02:01:10;;;;;;;1.25;0.50;;;17.50;99.90;;;;;;5100597;28;20043;-76
2022/07/26 02:03:35;;;;;;;;;;;17.60;99.90;;;;;;5077812;28;20054;-75
2022/07/26 02:06:02;;;;;;;1.55;0.52;;;17.60;99.90;;;;;;5111606;28;19922;-76
2022/07/26 02:08:27;;;;;;;0.65;0.40;;;17.60;99.90;;;;;;5094082;28;20039;-76
2022/07/26 02:10:59;;;;;;;;;;;17.60;99.90;;;;;;5081118;27;20054;-75
2022/07/26 02:13:35;;;;;;;1.20;0.68;;;17.60;99.90;;;;;;5105576;28;19977;-75
2022/07/26 02:16:03;;;;;;;1.08;0.57;;;17.50;99.90;;;;;;5097053;27;20404;-76
2022/07/26 02:18:29;;;;;;;2.13;0.60;;;17.60;99.90;;;;;;5097396;27;20176;-76
2022/07/26 02:20:56;;;;;;;1.00;0.60;;;17.50;99.90;;;;;;5095151;28;20050;-75
2022/07/26 02:23:23;;;;;;;0.95;0.45;;;17.60;99.90;;;;;;5083864;28;20039;-75
2022/07/26 02:25:49;;;;;;;1.80;0.70;;;17.50;99.90;;;;;;5096291;27;20893;-75
2022/07/26 02:28:15;;;;;;;;;;;17.50;99.90;;;;;;5105648;27;20079;-76
2022/07/26 02:30:42;;;;;;;3.80;1.40;;;17.60;99.90;;;;;;5142429;27;19927;-78
2022/07/26 02:33:08;;;;;;;1.50;0.80;;;17.50;99.90;;;;;;5100784;27;20092;-78
2022/07/26 02:35:34;;;;;;;2.70;1.10;;;16.90;99.90;;;;;;5112323;27;20545;-78
2022/07/26 02:38:04;;;;;;;1.58;0.80;;;17.00;99.90;;;;;;5128269;27;20044;-78
2022/07/26 02:40:30;;;;;;;0.93;0.60;;;16.70;99.90;;;;;;5093363;28;20115;-78
2022/07/26 02:42:56;;;;;;;2.60;0.75;;;16.40;99.90;;;;;;5093181;28;20047;-77
2022/07/26 02:45:22;;;;;;;1.83;0.70;;;16.20;99.90;;;;;;5093465;28;20070;-78
2022/07/26 02:47:50;;;;;;;1.13;0.60;;;16.70;99.90;;;;;;5092874;28;20046;-78
2022/07/26 02:50:21;;;;;;;0.85;0.52;;;16.40;99.90;;;;;;5109608;28;20044;-78
2022/07/26 02:52:47;;;;;;;1.00;0.40;;;16.70;99.90;;;;;;5093200;28;20135;-78
2022/07/26 02:55:15;;;;;;;0.40;0.38;;;16.60;99.90;;;;;;5093279;28;20050;-77
2022/07/26 02:57:41;;;;;;;0.90;0.30;;;16.10;99.90;;;;;;5093134;28;20507;-77
2022/07/26 03:00:08;;;;;;;1.75;0.50;;;16.50;99.90;;;;;;5059176;28;20042;-77
2022/07/26 03:02:34;;;;;;;2.15;0.60;;;16.00;99.90;;;;;;5093386;28;20066;-78
2022/07/26 03:05:01;;;;;;;1.05;0.50;;;16.30;99.90;;;;;;5127014;27;20383;-78
2022/07/26 03:07:27;;;;;;;1.27;0.50;;;16.30;99.90;;;;;;5076449;28;20043;-77
2022/07/26 03:09:53;;;;;;;1.17;0.40;;;16.40;99.90;;;;;;5079925;28;20047;-78
2022/07/26 03:12:19;;;;;;;1.58;0.60;;;16.60;99.90;;;;;;5108944;28;20205;-77
2022/07/26 03:14:44;;;;;;;2.83;0.80;;;16.50;99.90;;;;;;5112858;28;20046;-78
2022/07/26 03:17:10;;;;;;;2.08;0.60;;;16.10;99.90;;;;;;5103080;27;20149;-78
2022/07/26 03:19:36;;;;;;;1.35;0.60;;;16.10;99.90;;;;;;5097751;27;20496;-78
2022/07/26 03:22:01;;;;;;;1.80;0.50;;;16.20;99.90;;;;;;5094891;27;20394;-77
2022/07/26 03:24:27;;;;;;;3.15;0.70;;;16.10;99.90;;;;;;5081185;28;20100;-77
2022/07/26 03:26:52;;;;;;;2.00;0.50;;;16.10;99.90;;;;;;5094472;28;20067;-78
2022/07/26 03:29:18;;;;;;;0.90;0.50;;;16.50;99.90;;;;;;5104667;27;20134;-78
2022/07/26 03:31:44;;;;;;;0.90;0.40;;;16.50;99.90;;;;;;5107547;27;20128;-78
2022/07/26 03:34:10;;;;;;;2.95;0.60;;;16.10;99.90;;;;;;5087104;28;20039;-77
2022/07/26 03:36:35;;;;;;;1.95;0.60;;;16.10;99.90;;;;;;5094315;27;20047;-78
2022/07/26 03:39:01;;;;;;;2.13;0.43;;;15.90;99.90;;;;;;5109779;27;20498;-78
2022/07/26 03:41:27;;;;;;;1.42;0.45;;;16.00;99.90;;;;;;5128194;27;20112;-78
2022/07/26 03:43:52;;;;;;;2.08;0.50;;;16.40;99.90;;;;;;5095041;27;20083;-77
2022/07/26 03:46:18;;;;;;;2.00;0.43;;;16.20;99.90;;;;;;5089148;27;20079;-77
2022/07/26 03:48:44;;;;;;;1.33;0.40;;;16.00;99.90;;;;;;5101331;28;20050;-78
2022/07/26 03:51:09;;;;;;;1.13;0.40;;;16.00;99.90;;;;;;5096591;28;20092;-78
2022/07/26 03:53:35;;;;;;;1.92;0.65;;;16.30;99.90;;;;;;5107408;28;20069;-77
2022/07/26 03:58:45;;;;;;;1.58;0.40;;;16.30;99.90;;;;;;5096744;28;20444;-77
2022/07/26 04:01:10;;;;;;;1.25;0.40;;;16.30;99.90;;;;;;5087690;28;20055;-77
2022/07/26 04:03:36;;;;;;;0.98;0.35;;;15.90;99.90;;;;;;5096726;28;20558;-77
2022/07/26 04:06:02;;;;;;;0.40;0.20;;;16.30;99.90;;;;;;5095126;28;20347;-77
2022/07/26 04:08:27;;;;;;;0.73;0.20;;;16.10;99.90;;;;;;5095387;28;20039;-77
2022/07/26 04:10:53;;;;;;;0.98;0.40;;;15.90;99.90;;;;;;5095051;28;20134;-78
2022/07/26 04:13:20;;;;;;;1.02;0.30;;;16.00;99.90;;;;;;5096021;28;20082;-77
2022/07/26 04:15:46;;;;;;;1.13;0.30;;;16.10;99.90;;;;;;5102749;27;20171;-77
2022/07/26 04:18:13;;;;;;;1.23;0.30;;;16.10;99.90;;;;;;5109930;28;20035;-76
2022/07/26 04:20:39;;;;;;;1.48;0.25;;;16.20;99.90;;;;;;5093268;28;20028;-77
2022/07/26 04:23:04;;;;;;;1.52;0.20;;;16.00;99.90;;;;;;5098626;27;20546;-77
2022/07/26 04:25:30;;;;;;;1.05;0.28;;;15.90;99.90;;;;;;5095748;28;20047;-77
2022/07/26 04:27:56;;;;;;;0.75;0.28;;;16.20;99.90;;;;;;5078362;28;20066;-76
2022/07/26 04:30:22;;;;;;;0.85;0.30;;;15.80;99.90;;;;;;5094118;28;20086;-76
2022/07/26 04:32:47;;;;;;;1.08;0.40;;;16.10;99.90;;;;;;5077883;28;20059;-77
2022/07/26 04:35:14;;;;;;;1.92;0.30;;;15.80;99.90;;;;;;5096845;27;20047;-76
2022/07/26 04:37:41;;;;;;;1.27;0.40;;;15.90;99.90;;;;;;5106912;27;20065;-75
2022/07/26 04:40:08;;;;;;;0.55;0.20;;;16.10;99.90;;;;;;5112427;27;20039;-76
2022/07/26 04:42:34;;;;;;;1.83;0.35;;;16.10;99.90;;;;;;5097687;28;20042;-76
2022/07/26 04:45:00;;;;;;;;;;;16.10;99.90;;;;;;5107485;27;20047;-75
2022/07/26 04:47:26;;;;;;;2.05;0.43;;;15.90;99.90;;;;;;5129055;27;19990;-76
2022/07/26 04:49:51;;;;;;;0.68;0.20;;;16.00;99.90;;;;;;5103263;27;20047;-75
2022/07/26 04:52:17;;;;;;;1.58;0.40;;;16.20;99.90;;;;;;5109997;28;20523;-75
2022/07/26 04:54:43;;;;;;;1.08;0.30;;;16.00;99.90;;;;;;5098915;28;20046;-75
2022/07/26 04:57:08;;;;;;;0.98;0.20;;;15.90;99.90;;;;;;5094227;28;20050;-81
2022/07/26 04:59:34;;;;;;;0.40;0.20;;;16.10;99.90;;;;;;5077628;28;20072;-76
2022/07/26 05:02:00;;;;;;;0.57;0.10;;;15.70;99.90;;;;;;5080319;28;20131;-76
2022/07/26 05:04:26;;;;;;;0.60;0.10;;;15.70;99.90;;;;;;5095384;28;20044;-75
2022/07/26 05:06:51;;;;;;;0.85;0.22;;;16.00;99.90;;;;;;5094806;27;20566;-75
2022/07/26 05:09:17;;;;;;;1.13;0.20;;;16.10;99.90;;;;;;5120435;27;20036;-76
2022/07/26 05:11:42;;;;;;;0.70;0.20;;;15.70;99.90;;;;;;5098460;28;20051;-76
2022/07/26 05:14:08;;;;;;;0.73;0.20;;;15.80;99.90;;;;;;5093765;28;20032;-75
2022/07/26 05:16:34;;;;;;;0.32;0.08;;;15.80;99.90;;;;;;5092859;28;20039;-75
2022/07/26 05:18:59;;;;;;;0.20;0.10;;;15.80;99.90;;;;;;5098177;28;20047;-75
2022/07/26 05:21:26;;;;;;;1.17;0.28;;;15.80;99.90;;;;;;5081356;27;20100;-76
2022/07/26 05:23:53;;;;;;;2.05;0.32;;;15.90;99.90;;;;;;5110244;28;20074;-75
2022/07/26 05:26:19;;;;;;;3.05;0.40;;;15.70;99.90;;;;;;5093453;28;20749;-75
2022/07/26 05:28:45;;;;;;;2.05;0.50;;;15.50;99.90;;;;;;5093170;28;20122;-68
2022/07/26 05:31:11;;;;;;;2.67;0.80;;;15.50;99.90;;;;;;5095169;28;20551;-69
2022/07/26 05:33:36;;;;;;;2.58;0.60;;;15.30;99.90;;;;;;5078351;28;20039;-69
2022/07/26 05:36:02;;;;;;;1.67;0.68;;;15.40;99.90;;;;;;5093814;28;20098;-68
2022/07/26 05:38:28;;;;;;;1.83;0.38;;;15.40;99.90;;;;;;5075620;28;20467;-68
2022/07/26 05:40:54;;;;;;;1.08;0.50;;;15.40;99.90;;;;;;5093643;28;20101;-69
2022/07/26 05:43:20;;;;;;;0.57;0.13;;;15.50;99.90;;;;;;5092657;28;20584;-68
2022/07/26 05:45:45;;;;;;;0.32;0.10;;;15.30;99.90;;;;;;5077433;28;20051;-68
2022/07/26 05:48:11;;;;;;;0.22;0.10;;;15.40;99.90;;;;;;5093112;28;20444;-68
2022/07/26 05:50:37;;;;;;;2.17;0.40;;;15.40;99.90;;;;;;5096546;28;20039;-67
2022/07/26 05:53:02;;;;;;;1.38;0.28;;;15.60;99.90;;;;;;5097604;28;20398;-68
2022/07/26 05:55:28;;;;;;;1.50;0.30;;;15.50;99.90;;;;;;5097615;27;20043;-68
2022/07/26 05:57:54;;;;;;;2.17;0.30;;;15.60;99.90;;;;;;5102963;27;20099;-68
2022/07/26 06:00:19;;;;;;;1.00;0.20;;;15.70;99.90;;;;;;5100395;27;20047;-69
2022/07/26 06:02:45;;;;;;;1.65;0.30;;;15.70;99.90;;;;;;5077647;27;20470;-69
2022/07/26 06:05:11;;;;;;;1.33;0.22;;;15.90;99.90;;;;;;5082194;27;20052;-69
2022/07/26 06:07:37;;;;;;;1.48;0.32;;;16.00;99.90;;;;;;5077653;28;20048;-69
2022/07/26 06:10:03;;;;;;;1.73;0.30;;;16.10;99.90;;;;;;5099235;28;20044;-69
2022/07/26 06:12:29;;;;;;;1.33;0.40;;;16.10;99.90;;;;;;5076354;28;20039;-68
2022/07/26 06:14:55;;;;;;;2.50;0.50;;;16.10;99.90;;;;;;5094223;27;20042;-69
2022/07/26 06:17:20;;;;;;;2.55;0.52;;;16.20;99.90;;;;;;5076514;28;20032;-69
2022/07/26 06:19:46;;;;;;;0.85;0.30;;;16.20;99.90;;;;;;5089549;27;20039;-70
2022/07/26 06:22:12;;;;;;;1.20;0.30;;;16.00;99.90;;;;;;5095124;27;20042;-69
2022/07/26 06:24:37;;;;;;;1.85;0.40;;;16.10;99.90;;;;;;5090026;28;20079;-69
2022/07/26 06:27:03;;;;;;;1.15;0.38;;;16.10;99.90;;;;;;5091639;28;20062;-69
2022/07/26 06:29:29;;;;;;;2.13;0.50;;;15.90;99.90;;;;;;5070995;28;20083;-69
2022/07/26 06:31:55;;;;;;;2.70;0.55;;;16.00;99.90;;;;;;5096222;27;20052;-68
2022/07/26 06:34:20;;;;;;;2.30;0.60;;;15.70;99.90;;;;;;5100028;28;20047;-69
2022/07/26 06:36:46;;;;;;;1.60;0.40;;;15.60;99.90;;;;;;5078817;28;20043;-68
2022/07/26 06:39:12;;;;;;;1.10;0.45;;;15.80;99.90;;;;;;5098105;27;20048;-68
2022/07/26 06:41:38;;;;;;;1.42;0.30;;;15.60;99.90;;;;;;5090906;28;20506;-68
2022/07/26 06:44:04;;;;;;;1.20;0.43;;;15.60;99.90;;;;;;5090603;28;20035;-68
2022/07/26 06:46:29;;;;;;;2.05;0.30;;;15.70;99.90;;;;;;5094267;28;20051;-69
2022/07/26 06:48:55;;;;;;;2.45;0.40;;;15.70;99.90;;;;;;5094774;27;20039;-71
2022/07/26 06:51:22;;;;;;;2.42;0.70;;;15.90;99.90;;;;;;5081394;28;20055;-69
2022/07/26 06:53:48;;;;;;;1.42;0.40;;;16.10;99.90;;;;;;5078146;28;20494;-69
2022/07/26 06:56:16;;;;;;;1.13;0.40;;;16.20;99.90;;;;;;5096236;27;20050;-69
2022/07/26 06:58:42;;;;;;;1.80;0.40;;;16.20;99.90;;;;;;5092412;28;20390;-69
2022/07/26 07:01:07;;;;;;;2.58;0.45;;;16.30;99.90;;;;;;5091819;28;20127;-70
2022/07/26 07:03:33;;;;;;;2.45;0.40;;;16.40;99.90;;;;;;5071960;28;20058;-69
2022/07/26 07:05:59;;;;;;;1.60;0.40;;;16.40;99.90;;;;;;5087212;28;20044;-69
2022/07/26 07:08:24;;;;;;;1.20;0.40;;;16.50;99.90;;;;;;5093942;28;20059;-68
2022/07/26 07:10:51;;;;;;;1.45;0.40;;;16.40;99.90;;;;;;5088904;28;20496;-69
2022/07/26 07:13:18;;;;;;;1.88;0.40;;;16.20;99.90;;;;;;5090605;28;20032;-69
2022/07/26 07:15:43;;;;;;;2.88;0.40;;;16.10;99.90;;;;;;5089148;28;20050;-71
2022/07/26 07:18:09;;;;;;;2.75;0.50;;;16.10;99.90;;;;;;5099789;28;20047;-69
2022/07/26 07:20:36;;;;;;;1.48;0.45;;;16.20;99.90;;;;;;5094527;28;20036;-69
2022/07/26 07:23:01;;;;;;;1.75;0.40;;;16.40;99.90;;;;;;5092477;28;20046;-69
2022/07/26 07:25:27;;;;;;;1.27;0.30;;;16.50;99.90;;;;;;5075390;28;20047;-69
2022/07/26 07:27:52;;;;;;;2.03;0.52;;;16.80;99.90;;;;;;5075725;28;20049;-69
2022/07/26 07:30:18;;;;;;;1.85;0.30;;;16.90;99.90;;;;;;5091304;28;20071;-69
2022/07/26 07:32:44;;;;;;;2.33;0.60;;;16.80;99.90;;;;;;5058056;28;20122;-69
2022/07/26 07:35:10;;;;;;;3.22;0.55;;;16.90;99.90;;;;;;5098390;28;20051;-69
2022/07/26 07:37:35;;;;;;;1.95;0.40;;;16.90;99.90;;;;;;5092079;28;20084;-69
2022/07/26 07:40:06;;;;;;;2.83;0.70;;;17.10;99.90;;;;;;5092322;28;20075;-69
2022/07/26 07:42:32;;;;;;;1.60;0.40;;;17.10;99.90;;;;;;5108235;28;20063;-69
2022/07/26 07:45:01;;;;;;;3.38;0.52;;;17.10;99.90;;;;;;5088113;28;20051;-69
2022/07/26 07:47:27;;;;;;;3.95;0.90;;;16.90;99.90;;;;;;5131520;27;20118;-70
2022/07/26 07:49:53;;;;;;;2.80;0.82;;;16.60;99.90;;;;;;5092220;28;20186;-70
2022/07/26 07:52:18;;;;;;;2.17;0.80;;;16.40;99.90;;;;;;5091844;28;20100;-70
2022/07/26 07:54:44;;;;;;;3.05;0.50;;;16.40;99.90;;;;;;5075374;28;20113;-70
2022/07/26 07:57:10;;;;;;;2.40;0.60;;;16.30;99.90;;;;;;5075732;28;20040;-70
2022/07/26 07:59:36;;;;;;;1.77;0.52;;;16.40;99.90;;;;;;5092489;28;20036;-70
2022/07/26 08:02:01;;;;;;;2.10;0.50;;;16.50;99.90;;;;;;5076133;28;20047;-69
2022/07/26 08:04:27;;;;;;;2.67;0.60;;;16.50;99.90;;;;;;5096100;27;20047;-70
2022/07/26 08:06:53;;;;;;;2.85;0.73;;;16.60;99.90;;;;;;5113271;27;20039;-70
2022/07/26 08:09:19;;;;;;;3.42;0.80;;;16.60;99.90;;;;;;5096445;28;20040;-70
2022/07/26 08:11:45;;;;;;;2.22;0.60;;;16.60;99.90;;;;;;5096313;28;20126;-70
2022/07/26 08:14:10;;;;;;;3.25;0.70;;;16.70;99.90;;;;;;5096003;28;20051;-70
2022/07/26 08:16:36;;;;;;;3.20;0.70;;;16.80;99.90;;;;;;5095883;28;20047;-70
2022/07/26 08:19:02;;;;;;;2.33;0.60;;;17.00;99.90;;;;;;5095834;28;20047;-70
2022/07/26 08:21:27;;;;;;;3.22;0.75;;;17.10;99.90;;;;;;5095930;28;20088;-70
2022/07/26 08:23:53;;;;;;;1.33;0.50;;;17.10;99.90;;;;;;5078895;28;20130;-70
2022/07/26 08:26:19;;;;;;;1.80;0.50;;;17.20;99.90;;;;;;5095853;28;20047;-70
2022/07/26 08:28:44;;;;;;;2.42;0.60;;;17.40;99.90;;;;;;5078972;28;20573;-70
2022/07/26 08:31:10;;;;;;;1.70;0.60;;;17.50;99.90;;;;;;5095595;28;20513;-70
2022/07/26 08:33:36;;;;;;;2.00;0.57;;;17.60;99.90;;;;;;5095717;28;20043;-70
2022/07/26 08:36:02;;;;;;;3.75;0.70;;;17.60;99.90;;;;;;5129599;27;20040;-70
2022/07/26 08:38:28;;;;;;;3.08;0.73;;;17.60;99.90;;;;;;5095525;28;20039;-70
2022/07/26 08:40:53;;;;;;;3.55;0.77;;;17.50;99.90;;;;;;5095502;28;20032;-70
2022/07/26 08:43:19;;;;;;;2.05;0.90;;;17.30;99.90;;;;;;5095487;28;20113;-70
2022/07/26 08:45:46;;;;;;;3.35;0.98;;;17.20;99.90;;;;;;5078913;28;20039;-70
2022/07/26 08:48:12;;;;;;;4.40;1.00;;;17.00;99.90;;;;;;5078692;28;20036;-70
2022/07/26 08:50:39;;;;;;;3.30;0.80;;;17.00;99.90;;;;;;5095379;28;20105;-70
2022/07/26 08:53:08;;;;;;;2.05;0.70;;;17.10;99.90;;;;;;5112659;28;20083;-70
2022/07/26 08:55:35;;;;;;;2.15;0.80;;;17.30;99.90;;;;;;5078432;28;20444;-70
2022/07/26 08:58:04;;;;;;;2.72;0.80;;;17.40;99.90;;;;;;5095057;28;20070;-70
2022/07/26 09:00:31;;;;;;;3.90;1.17;;;17.60;99.90;;;;;;5113355;27;20032;-70
2022/07/26 09:02:58;;;;;;;3.67;1.10;;;17.50;99.90;;;;;;5078108;28;20114;-70
2022/07/26 09:05:33;;;;;;;3.67;1.10;;;17.40;99.90;;;;;;5095120;28;20039;-70
2022/07/26 09:08:00;;;;;;;4.07;1.27;;;17.10;99.90;;;;;;5128996;27;20054;-70
2022/07/26 09:10:26;;;;;;;3.45;1.10;;;16.90;99.90;;;;;;5094952;28;20126;-70
2022/07/26 09:12:56;;;;;;;2.95;1.00;;;16.80;99.90;;;;;;5077694;28;20096;-70
2022/07/26 09:15:27;;;;;;;4.60;1.00;;;16.90;99.90;;;;;;5127981;27;20059;-70
2022/07/26 09:17:55;;;;;;;3.63;0.80;;;16.90;99.90;;;;;;5094511;28;20126;-70
2022/07/26 09:20:26;;;;;;;3.08;0.85;;;17.00;99.90;;;;;;5111711;28;20046;-70
2022/07/26 09:23:10;;;;;;;4.38;0.90;;;17.10;99.90;;;;;;5077825;28;20036;-70
2022/07/26 09:25:39;;;;;;;2.17;1.00;;;17.10;99.90;;;;;;5128640;27;20114;-70
2022/07/26 09:28:27;;;;;;;4.22;1.10;;;17.00;99.90;;;;;;5094560;28;20498;-70
2022/07/26 09:30:57;;;;;;;4.68;1.27;;;16.90;99.90;;;;;;5128300;27;20059;-70
2022/07/26 09:33:23;;;;;;;3.35;1.13;;;16.90;99.90;;;;;;5094399;28;20047;-69
2022/07/26 09:36:04;;;;;;;6.38;1.48;;;17.10;99.90;;;;;;5094277;28;20040;-70
2022/07/26 09:38:38;;;;;;;8.10;1.80;;;17.20;99.90;;;;;;5094609;28;20097;-70
2022/07/26 09:41:19;;;;;;;7.05;1.42;;;17.30;99.90;;;;;;5094465;28;20120;-69
2022/07/26 09:43:45;;;;;;;4.55;1.20;;;17.30;99.90;;;;;;5094433;28;20446;-70
2022/07/26 09:46:11;;;;;;;;;;;17.20;99.90;;;;;;5078162;28;20394;-70
2022/07/26 09:48:40;;;;;;;5.00;1.17;;;17.20;99.90;;;;;;5094233;28;19915;-70
2022/07/26 09:51:06;;;;;;;5.88;1.60;;;17.20;99.90;;;;;;5077099;28;20039;-70
2022/07/26 09:53:45;;;;;;;4.85;1.20;;;17.10;99.90;;;;;;5094195;28;20044;-70
2022/07/26 09:56:12;;;;;;;4.07;1.13;;;17.10;99.90;;;;;;5093915;28;20047;-70
2022/07/26 09:58:38;;;;;;;6.63;1.40;;;17.20;99.90;;;;;;5094296;28;20046;-70
2022/07/26 10:01:05;;;;;;;;;;;17.30;99.90;;;;;;5077368;28;20130;-70
2022/07/26 10:03:32;;;;;;;6.93;0.90;;;17.40;99.90;;;;;;5094132;28;20450;-70
2022/07/26 10:05:58;;;;;;;3.50;1.13;;;17.40;99.90;;;;;;5076916;28;20474;-70
2022/07/26 10:08:24;;;;;;;;;;;17.60;99.90;;;;;;5077534;28;20394;-70
2022/07/26 10:11:05;;;;;;;5.63;1.10;;;17.90;99.90;;;;;;5110928;28;19924;-70
2022/07/26 10:13:31;;;;;;;4.47;1.15;;;18.00;99.90;;;;;;5094116;28;20084;-70
2022/07/26 10:15:58;;;;;;;4.07;1.10;;;18.00;99.90;;;;;;5093520;28;20440;-70
2022/07/26 10:18:35;;;;;;;;;;;18.00;99.90;;;;;;5128218;27;20078;-70
2022/07/26 10:21:17;;;;;;;4.20;1.30;;;18.20;99.90;;;;;;5078680;28;19916;-71
2022/07/26 10:23:49;;;;;;;2.85;0.85;;;18.50;99.90;;;;;;5076701;28;20551;-70
2022/07/26 10:26:30;;;;;;;2.88;1.02;;;18.50;99.90;;;;;;5093341;28;20078;-69
2022/07/26 10:29:15;;;;;;;4.07;1.15;;;18.30;99.90;;;;;;5076706;28;20039;-70
2022/07/26 10:31:59;;;;;;;2.15;0.80;;;18.50;99.90;;;;;;5109904;28;20498;-70
2022/07/26 10:34:36;;;;;;;3.85;0.93;;;18.80;99.90;;;;;;5093257;28;20047;-70
2022/07/26 10:37:08;;;;;;;3.85;1.10;;;18.80;99.90;;;;;;5090379;28;20050;-70
2022/07/26 10:39:35;;;;;;;2.88;0.90;;;18.80;99.90;;;;;;5092345;28;20039;-70
2022/07/26 10:42:05;;;;;;;3.90;1.13;;;18.70;99.90;;;;;;5093572;28;20390;-70
2022/07/26 10:44:33;;;;;;;2.20;0.80;;;18.60;99.90;;;;;;5096809;27;20489;-70
2022/07/26 10:47:08;;;;;;;3.08;0.90;;;18.60;99.90;;;;;;5106881;27;20047;-70
2022/07/26 10:49:39;;;;;;;3.30;0.95;;;18.80;99.90;;;;;;5102743;28;20031;-70
2022/07/26 10:52:06;;;;;;;4.30;0.82;;;19.00;99.90;;;;;;5095820;27;20043;-70
2022/07/26 10:54:58;;;;;;;3.60;0.95;;;19.00;97.60;;;;;;5103196;27;20446;-70
2022/07/26 10:57:31;;;;;;;2.95;0.98;;;18.90;99.10;;;;;;5073969;28;20036;-70
2022/07/26 10:59:58;;;;;;;3.20;1.00;;;18.80;99.00;;;;;;5100553;28;20048;-70
2022/07/26 11:02:27;;;;;;;3.38;0.95;;;19.20;98.90;;;;;;5112596;27;20038;-70
2022/07/26 11:05:13;;;;;;;2.92;0.70;;;19.30;95.80;;;;;;5120206;27;20039;-69
2022/07/26 11:07:50;;;;;;;2.53;0.80;;;19.50;97.90;;;;;;5104560;28;20055;-70
2022/07/26 11:10:22;;;;;;;2.75;0.80;;;19.20;96.40;;;;;;5114494;27;20047;-70
2022/07/26 11:12:56;;;;;;;3.13;0.80;;;19.20;97.80;;;;;;5118426;27;20374;-76
2022/07/26 11:15:22;;;;;;;2.40;0.70;;;19.00;96.10;;;;;;5092354;28;20043;-76
2022/07/26 11:17:47;;;;;;;;;;;18.90;96.20;;;;;;5092606;28;20058;-75
2022/07/26 11:20:24;;;;;;;2.28;0.65;;;18.70;96.60;;;;;;5127608;27;19923;-75
2022/07/26 11:22:50;;;;;;;;;;;19.40;97.40;;;;;;5093613;28;20067;-75
2022/07/26 11:25:20;;;;;;;2.22;0.70;;;19.60;96.00;;;;;;5091848;28;19985;-76
2022/07/26 11:28:03;;;;;;;2.50;0.60;;;19.70;96.60;;;;;;5088568;28;20032;-76
2022/07/26 11:30:29;;;;;;;2.55;0.85;;;19.50;95.30;;;;;;5072702;28;20570;-76
2022/07/26 11:32:59;;;;;;;4.15;0.70;;;19.30;96.00;;;;;;5092685;28;20095;-76
2022/07/26 11:35:25;;;;;;;1.90;0.60;;;19.10;96.80;;;;;;5079591;28;20054;-76
2022/07/26 11:37:53;;;;;;;1.30;0.60;;;19.20;97.10;;;;;;5098166;27;20459;-76
2022/07/26 11:40:43;;;;;;;1.67;0.55;;;19.40;98.10;;;;;;5093928;27;20139;-76
2022/07/26 11:43:08;;;;;;;3.63;0.77;;;19.30;97.20;;;;;;5093173;28;20039;-76
2022/07/26 11:45:34;;;;;;;;;;;19.30;96.10;;;;;;5098721;27;20122;-76
2022/07/26 11:48:00;;;;;;;2.55;0.60;;;19.10;95.70;;;;;;5114067;27;19923;-70
2022/07/26 11:50:25;;;;;;;;;;;19.10;96.00;;;;;;5097996;27;20043;-70
2022/07/26 11:52:52;;;;;;;2.25;0.50;;;19.10;96.40;;;;;;5109099;28;20324;-70
2022/07/26 11:55:30;;;;;;;1.23;0.50;;;19.30;95.70;;;;;;5091315;28;20044;-70
2022/07/26 11:58:04;;;;;;;2.88;0.80;;;19.50;95.70;;;;;;5096099;27;20047;-70
2022/07/26 12:00:30;;;;;;;1.45;0.50;;;19.40;94.80;;;;;;5094924;27;20039;-70
2022/07/26 12:02:55;;;;;;;;;;;19.50;95.40;;;;;;5105535;27;20046;-70
2022/07/26 12:05:22;;;;;;;0.60;0.40;;;19.80;96.10;;;;;;5098277;27;19919;-70
2022/07/26 12:08:07;;;;;;;2.20;0.50;;;19.80;94.40;;;;;;5076303;28;20047;-70
2022/07/26 12:10:33;;;;;;;1.00;0.60;;;20.00;93.50;;;;;;5077129;28;20417;-71
2022/07/26 12:13:25;;;;;;;;;;;20.20;94.10;;;;;;5095933;27;20057;-69
2022/07/26 12:15:51;;;;;;;1.73;0.60;;;20.30;93.20;;;;;;5088225;28;20389;-71
2022/07/26 12:18:31;;;;;;;2.97;0.80;;;20.00;93.90;;;;;;5104674;27;20039;-70
2022/07/26 12:21:06;;;;;;;2.45;0.80;;;19.80;95.70;;;;;;5095788;28;20062;-71
2022/07/26 12:23:49;;;;;;;2.67;0.75;;;19.60;96.50;;;;;;5098870;27;20054;-71
2022/07/26 12:26:29;;;;;;;4.15;0.98;;;19.50;97.40;;;;;;5091212;28;20085;-77
2022/07/26 12:29:23;;;;;;;3.15;0.90;;;19.20;97.60;;;;;;5126306;27;20043;-75
2022/07/26 12:31:43;;;;;;;2.65;0.82;;;19.20;96.60;;;;;;5105515;27;20127;-76
2022/07/26 12:34:10;;;;;;;2.92;0.70;;;19.00;97.00;;;;;;5087306;27;20039;-75
2022/07/26 12:36:36;;;;;;;3.17;0.52;;;18.90;96.80;;;;;;5101495;28;20055;-76
2022/07/26 12:39:03;;;;;;;;;;;18.90;97.00;;;;;;5095258;28;20070;-75
2022/07/26 12:41:29;;;;;;;;;;;18.90;97.10;;;;;;5081905;28;20188;-75
2022/07/26 12:43:55;;;;;;;;;;;19.00;96.90;;;;;;5101725;28;19916;-75
2022/07/26 12:46:20;;;;;;;;;;;19.00;95.80;;;;;;5091575;27;20415;-75
2022/07/26 12:48:46;;;;;;;;;;;19.10;96.50;;;;;;5091344;28;20427;-76
2022/07/26 12:51:12;;;;;;;;;;;18.90;95.60;;;;;;5126944;27;19919;-76
2022/07/26 12:53:37;;;;;;;;;;;18.90;96.40;;;;;;5111327;28;19923;-77
2022/07/26 12:56:03;;;;;;;;;;;18.80;95.70;;;;;;5090881;28;19920;-81
2022/07/26 12:58:29;;;;;;;;;;;18.80;96.30;;;;;;5144253;27;20357;-74
2022/07/26 13:00:54;;;;;;;;;;;18.60;96.90;;;;;;5112160;27;20402;-76